»·PEaware :: N614FT KLAS-KVNY

N614FT :: KLAS-KVNY

FLIGHT INFORMATION

Flight Status: Arrived
Operator: Privately registered:
United States
More flights under this callsign
Pilot: Carlos A. (16805)
Aircraft: PIPER PA-31/31P NAVAJO CHIEFTAIN
(PA31)
More flights by this aircraft type
Origin: KLAS Harry Reid Intl
United States
Destination: KVNY Van Nuys
United States
More flights between these airports :: More routes between these airports
Route: LAS V394 BASAL V12 PMD LYNXX8
File this flight plan on PilotEdge
Remarks:
Altitude:
(Current/Filed)
12,000ft
Speed:
(Current/Filed)
185kts
Departed: 23-Jan-23 11:58 AM
Arrived: 23-Jan-23 12:59 PM
Distance/Time
Traveled:
198nm/1:01
Distance/Time
To Go:
Arrived

Flight Plot

Page will automatically refresh every two minutes.

Flight plan parsing failed; only flown route is shown


Map Options




Map Legend


Flown Route
Filed Route
Departure Airport
Arrival Airport
Navaid (VOR, NDB)
Fix

Horizontal Profiles

Position Reports

Time Latitude Longitude Heading Altitude Ground
Speed
23-Jan-23 11:05 36.083586 -115.168895 90 2199ft 0kts
23-Jan-23 11:06 36.083586 -115.168895 90 2185ft 0kts
23-Jan-23 11:07 36.083586 -115.168895 90 2185ft 0kts
23-Jan-23 11:08 36.083586 -115.168895 90 2185ft 0kts
23-Jan-23 11:09 36.083586 -115.168895 90 2185ft 0kts
23-Jan-23 11:10 36.083586 -115.168895 90 2185ft 0kts
23-Jan-23 11:11 36.083586 -115.168895 90 2185ft 0kts
23-Jan-23 11:12 36.083586 -115.168894 90 2185ft 0kts
23-Jan-23 11:13 36.083586 -115.168893 90 2185ft 0kts
23-Jan-23 11:14 36.083586 -115.168891 90 2185ft 0kts
23-Jan-23 11:15 36.083586 -115.168889 90 2185ft 0kts
23-Jan-23 11:16 36.083586 -115.168887 90 2185ft 0kts
23-Jan-23 11:17 36.083586 -115.168885 90 2185ft 0kts
23-Jan-23 11:18 36.083586 -115.168883 90 2185ft 0kts
23-Jan-23 11:19 36.083586 -115.168882 90 2185ft 0kts
23-Jan-23 11:20 36.083586 -115.168880 90 2185ft 0kts
23-Jan-23 11:21 36.083586 -115.168878 90 2185ft 0kts
23-Jan-23 11:22 36.083586 -115.168876 90 2185ft 0kts
23-Jan-23 11:23 36.083586 -115.168875 90 2185ft 0kts
23-Jan-23 11:24 36.083586 -115.168873 90 2185ft 0kts
23-Jan-23 11:25 36.083586 -115.168871 90 2185ft 0kts
23-Jan-23 11:26 36.083586 -115.168869 90 2185ft 0kts
23-Jan-23 11:27 36.083586 -115.168868 90 2185ft 0kts
23-Jan-23 11:28 36.083586 -115.168866 90 2185ft 0kts
23-Jan-23 11:28 36.083586 -115.168865 90 2185ft 0kts
23-Jan-23 11:29 36.083586 -115.168863 90 2185ft 0kts
23-Jan-23 11:30 36.083586 -115.168861 90 2185ft 0kts
23-Jan-23 11:32 36.083586 -115.168859 90 2185ft 0kts
23-Jan-23 11:33 36.083586 -115.168857 90 2185ft 0kts
23-Jan-23 11:33 36.083586 -115.168856 90 2185ft 0kts
23-Jan-23 11:34 36.083586 -115.168854 90 2185ft 0kts
23-Jan-23 11:35 36.083586 -115.168852 90 2185ft 0kts
23-Jan-23 11:36 36.083586 -115.168850 90 2185ft 0kts
23-Jan-23 11:38 36.083586 -115.168848 90 2185ft 0kts
23-Jan-23 11:38 36.083585 -115.168797 90 2185ft 0kts
23-Jan-23 11:39 36.083495 -115.168715 161 2185ft 0kts
23-Jan-23 11:40 36.083480 -115.168709 161 2185ft 0kts
23-Jan-23 11:41 36.083464 -115.168703 161 2185ft 0kts
23-Jan-23 11:42 36.083449 -115.168696 161 2185ft 0kts
23-Jan-23 11:43 36.083434 -115.168690 161 2185ft 0kts
23-Jan-23 11:44 36.083421 -115.168685 161 2185ft 0kts
23-Jan-23 11:45 36.083419 -115.168684 161 2185ft 0kts
23-Jan-23 11:46 36.083417 -115.168683 161 2185ft 0kts
23-Jan-23 11:47 36.083414 -115.168682 161 2185ft 0kts
23-Jan-23 11:48 36.083412 -115.168681 161 2185ft 0kts
23-Jan-23 11:49 36.083410 -115.168680 161 2185ft 0kts
23-Jan-23 11:50 36.082168 -115.168755 202 2185ft 7kts
23-Jan-23 11:51 36.079189 -115.170382 203 2185ft 13kts
23-Jan-23 11:52 36.077842 -115.169757 92 2185ft 1kts
23-Jan-23 11:53 36.077841 -115.169732 91 2185ft 0kts
23-Jan-23 11:54 36.077841 -115.169729 91 2185ft 0kts
23-Jan-23 11:55 36.077841 -115.169717 91 2185ft 1kts
23-Jan-23 11:56 36.078419 -115.168505 19 2185ft 34kts
23-Jan-23 11:57 36.094519 -115.174230 301 3043ft 105kts
23-Jan-23 11:58 36.103516 -115.204752 287 4437ft 112kts
23-Jan-23 11:59 36.075035 -115.234108 188 5028ft 179kts
23-Jan-23 12:00 36.039186 -115.256576 216 6653ft 149kts
23-Jan-23 12:01 36.005824 -115.288649 224 7902ft 160kts
23-Jan-23 12:02 35.969718 -115.323630 221 9224ft 173kts
23-Jan-23 12:03 35.927869 -115.360170 212 10132ft 213kts
23-Jan-23 12:04 35.880507 -115.403559 226 11064ft 215kts
23-Jan-23 12:05 35.842123 -115.463171 238 11641ft 228kts
23-Jan-23 12:06 35.798165 -115.527060 224 11948ft 249kts
23-Jan-23 12:07 35.745907 -115.586994 226 12001ft 261kts
23-Jan-23 12:08 35.693875 -115.649432 229 12034ft 260kts
23-Jan-23 12:09 35.645109 -115.716968 236 11933ft 260kts
23-Jan-23 12:10 35.601005 -115.787101 230 11965ft 261kts
23-Jan-23 12:11 35.549447 -115.850250 225 11981ft 263kts
23-Jan-23 12:12 35.500460 -115.916186 211 11829ft 266kts
23-Jan-23 12:13 35.443248 -115.971089 218 11951ft 261kts
23-Jan-23 12:14 35.389927 -116.031618 232 11990ft 261kts
23-Jan-23 12:15 35.340878 -116.097388 228 11989ft 264kts
23-Jan-23 12:16 35.291657 -116.159495 232 11922ft 260kts
23-Jan-23 12:17 35.239591 -116.221306 222 11944ft 263kts
23-Jan-23 12:18 35.186649 -116.282447 227 11913ft 261kts
23-Jan-23 12:19 35.137552 -116.347183 229 11925ft 260kts
23-Jan-23 12:20 35.087230 -116.410111 232 11902ft 260kts
23-Jan-23 12:21 35.042233 -116.477680 232 11912ft 260kts
23-Jan-23 12:22 34.990692 -116.539164 230 12017ft 258kts
23-Jan-23 12:23 34.941917 -116.604081 236 12003ft 256kts
23-Jan-23 12:24 34.897644 -116.672262 232 11979ft 259kts
23-Jan-23 12:25 34.841884 -116.728591 229 12084ft 250kts
23-Jan-23 12:26 34.794012 -116.792895 236 12045ft 260kts
23-Jan-23 12:27 34.749838 -116.861660 248 11971ft 253kts
23-Jan-23 12:28 34.721298 -116.938654 257 11963ft 246kts
23-Jan-23 12:29 34.703253 -117.017500 278 11836ft 232kts
23-Jan-23 12:30 34.697919 -117.094919 277 12020ft 229kts
23-Jan-23 12:31 34.698939 -117.172104 286 12001ft 224kts
23-Jan-23 12:32 34.700269 -117.248989 279 11902ft 235kts
23-Jan-23 12:33 34.700986 -117.326555 280 11943ft 232kts
23-Jan-23 12:34 34.696267 -117.405062 279 12056ft 228kts
23-Jan-23 12:35 34.700608 -117.479791 293 12226ft 220kts
23-Jan-23 12:36 34.701892 -117.556733 270 12058ft 243kts
23-Jan-23 12:37 34.688137 -117.636735 263 11961ft 246kts
23-Jan-23 12:38 34.666035 -117.715706 250 11804ft 255kts
23-Jan-23 12:39 34.640765 -117.793205 260 11796ft 249kts
23-Jan-23 12:40 34.623577 -117.870655 273 12292ft 228kts
23-Jan-23 12:41 34.618642 -117.948369 289 12185ft 226kts
23-Jan-23 12:42 34.629384 -118.021014 281 11427ft 220kts
23-Jan-23 12:43 34.624569 -118.090525 265 10826ft 212kts
23-Jan-23 12:44 34.608027 -118.156450 256 9965ft 214kts
23-Jan-23 12:45 34.594746 -118.221682 261 8928ft 195kts
23-Jan-23 12:46 34.580802 -118.281113 261 8189ft 184kts
23-Jan-23 12:47 34.567418 -118.336679 258 8187ft 180kts
23-Jan-23 12:48 34.554175 -118.395689 259 8084ft 180kts
23-Jan-23 12:49 34.540567 -118.452177 260 6808ft 176kts
23-Jan-23 12:50 34.529772 -118.504464 223 5628ft 150kts
23-Jan-23 12:51 34.488626 -118.516635 177 5948ft 149kts
23-Jan-23 12:52 34.445682 -118.515928 170 5995ft 158kts
23-Jan-23 12:53 34.401075 -118.507728 174 5981ft 163kts
23-Jan-23 12:54 34.354679 -118.504998 181 5115ft 171kts
23-Jan-23 12:55 34.306091 -118.500281 174 3306ft 163kts
23-Jan-23 12:56 34.269025 -118.496442 176 2228ft 115kts
23-Jan-23 12:57 34.236080 -118.492818 177 1444ft 123kts
23-Jan-23 12:58 34.206850 -118.490126 166 806ft 25kts
23-Jan-23 12:59 34.206535 -118.489288 76 806ft 0kts
23-Jan-23 13:00 34.206590 -118.488899 82 806ft 1kts
23-Jan-23 13:01 34.206965 -118.488036 74 806ft 5kts
23-Jan-23 13:02 34.206860 -118.486964 179 806ft 2kts
23-Jan-23 13:03 34.206739 -118.486951 171 806ft 0kts
23-Jan-23 13:04 34.206739 -118.486951 171 806ft 0kts
23-Jan-23 13:05 34.206739 -118.486951 171 806ft 0kts
23-Jan-23 13:06 34.206739 -118.486951 171 806ft 0kts

Navigation Log

Ident Type
Flight plan parsing failed, navigation log unavailable